Time;durP1;ratioP1;P1;durP2;ratioP2;P2;SDS_P1;SDS_P2;PMS_P1;PMS_P2;Temp;Humidity;BMP_temperature;BMP_pressure;BME280_temperature;BME280_humidity;BME280_pressure;Samples;Min_cycle;Max_cycle;Signal;HPM_P1;HPM_P2
2022/11/14 00:00:25;;;;;;;49.33;23.58;;;3.40;99.90;;;;;;5066258;28;20180;-89
2022/11/14 00:02:52;;;;;;;65.75;27.05;;;3.20;99.90;;;;;;5062188;28;20217;-87
2022/11/14 00:05:18;;;;;;;44.33;23.75;;;3.20;99.90;;;;;;5056902;28;20183;-88
2022/11/14 00:07:44;;;;;;;42.23;23.80;;;;;;;;;;5066035;28;20184;-90
2022/11/14 00:10:11;;;;;;;36.88;22.38;;;3.30;99.90;;;;;;5061014;28;20473;-89
2022/11/14 00:12:36;;;;;;;48.97;26.17;;;3.80;99.90;;;;;;5053959;28;20343;-90
2022/11/14 00:15:02;;;;;;;43.33;23.17;;;3.30;99.90;;;;;;5060779;28;20263;-87
2022/11/14 00:17:28;;;;;;;46.10;24.43;;;;;;;;;;5061296;28;20212;-86
2022/11/14 00:19:53;;;;;;;45.73;25.90;;;3.40;99.90;;;;;;5060816;28;20456;-88
2022/11/14 00:22:19;;;;;;;46.63;24.30;;;;;;;;;;5053808;28;20483;-88
2022/11/14 00:24:45;;;;;;;40.40;25.07;;;3.50;99.90;;;;;;5057474;28;20181;-88
2022/11/14 00:27:11;;;;;;;38.50;23.13;;;;;;;;;;5064937;28;20427;-86
2022/11/14 00:29:37;;;;;;;38.97;21.55;;;3.80;99.90;;;;;;5060755;28;20181;-88
2022/11/14 00:32:03;;;;;;;35.75;22.35;;;4.00;99.90;;;;;;5057941;28;20204;-85
2022/11/14 00:34:28;;;;;;;39.40;23.43;;;3.90;99.90;;;;;;5058576;28;20192;-88
2022/11/14 00:36:54;;;;;;;39.10;22.63;;;;;;;;;;5065513;28;20180;-88
2022/11/14 00:39:20;;;;;;;38.77;23.30;;;4.00;99.90;;;;;;5062519;28;20184;-88
2022/11/14 00:42:01;;;;;;;41.13;23.27;;;4.20;99.90;;;;;;5074252;28;20455;-88
2022/11/14 00:44:26;;;;;;;46.70;20.83;;;4.20;99.90;;;;;;5080066;28;20712;-88
2022/11/14 00:46:52;;;;;;;39.07;20.87;;;;;;;;;;5060822;28;20201;-88
2022/11/14 00:49:23;;;;;;;37.30;20.10;;;4.30;99.90;;;;;;5063954;28;20172;-90
2022/11/14 00:51:48;;;;;;;33.20;19.17;;;4.40;99.90;;;;;;5062882;28;20785;-87
2022/11/14 00:54:14;;;;;;;32.63;20.17;;;;;;;;;;5062716;28;20192;-88
2022/11/14 00:56:41;;;;;;;37.73;20.07;;;4.50;99.90;;;;;;5065704;28;20189;-87
2022/11/14 00:59:07;;;;;;;34.95;19.60;;;4.40;99.90;;;;;;5066572;28;20442;-88
2022/11/14 01:01:33;;;;;;;31.00;18.20;;;;;;;;;;5067879;28;20200;-89
2022/11/14 01:03:58;;;;;;;38.20;20.05;;;4.70;99.90;;;;;;5069797;28;20170;-90
2022/11/14 01:06:24;;;;;;;29.20;17.77;;;;;;;;;;5063616;28;20268;-87
2022/11/14 01:08:51;;;;;;;33.93;19.40;;;;;;;;;;5080360;28;20176;-86
2022/11/14 01:11:19;;;;;;;34.60;20.50;;;4.90;99.90;;;;;;5048958;22;1061560;-89
2022/11/14 01:13:45;;;;;;;36.90;19.67;;;4.90;99.90;;;;;;5040128;28;20447;-89
2022/11/14 01:16:12;;;;;;;37.75;20.20;;;4.70;99.90;;;;;;5049554;28;20238;-88
2022/11/14 01:18:38;;;;;;;34.40;19.42;;;4.60;99.90;;;;;;5056420;28;20191;-89
2022/11/14 01:21:09;;;;;;;41.80;21.00;;;4.50;99.90;;;;;;5037942;28;20208;-88
2022/11/14 01:23:35;;;;;;;33.38;19.35;;;4.50;99.90;;;;;;5041754;28;20185;-89
2022/11/14 01:26:07;;;;;;;38.13;21.15;;;4.50;99.90;;;;;;5058935;28;20185;-89
2022/11/14 01:28:33;;;;;;;42.63;21.80;;;4.70;99.90;;;;;;5045096;28;20212;-88
2022/11/14 01:31:19;;;;;;;36.78;20.08;;;4.70;99.90;;;;;;5063978;28;20219;-88
2022/11/14 01:33:48;;;;;;;35.92;20.08;;;4.80;99.90;;;;;;5060932;28;20246;-88
2022/11/14 01:36:14;;;;;;;34.67;20.38;;;4.90;99.90;;;;;;5044759;28;20288;-90
2022/11/14 01:38:39;;;;;;;39.97;20.40;;;4.90;99.90;;;;;;5053762;28;20177;-88
2022/11/14 01:41:05;;;;;;;40.57;21.30;;;;;;;;;;5050129;28;20325;-89
2022/11/14 01:43:33;;;;;;;34.65;19.90;;;5.00;99.90;;;;;;5041381;28;20204;-90
2022/11/14 01:46:16;;;;;;;36.67;20.90;;;5.00;99.90;;;;;;5047989;28;20181;-88
2022/11/14 01:49:01;;;;;;;33.40;19.83;;;5.00;99.90;;;;;;5063378;28;20177;-88
2022/11/14 01:51:44;;;;;;;33.92;19.58;;;4.80;99.90;;;;;;5059022;28;20251;-90
2022/11/14 01:54:19;;;;;;;31.55;17.85;;;4.80;99.90;;;;;;5042744;28;20181;-88
2022/11/14 01:56:53;;;;;;;32.97;18.15;;;4.90;99.90;;;;;;5037162;28;20724;-88
2022/11/14 01:59:23;;;;;;;35.97;18.88;;;5.00;99.90;;;;;;5053655;28;20184;-88
2022/11/14 02:01:51;;;;;;;30.20;17.17;;;5.00;99.90;;;;;;5048984;28;20905;-88
2022/11/14 02:04:23;;;;;;;37.40;17.65;;;4.90;99.90;;;;;;5037241;28;22272;-89
2022/11/14 02:06:52;;;;;;;32.85;18.17;;;4.80;99.90;;;;;;5060925;28;20280;-89
2022/11/14 02:09:18;;;;;;;36.42;18.83;;;4.80;99.90;;;;;;5034965;28;20201;-88
2022/11/14 02:11:45;;;;;;;35.80;18.03;;;4.90;99.90;;;;;;5035201;28;20255;-88
2022/11/14 02:14:10;;;;;;;31.42;16.30;;;4.80;99.90;;;;;;5038499;28;20445;-87
2022/11/14 02:16:39;;;;;;;30.47;17.33;;;4.70;99.90;;;;;;5039392;28;20192;-88
2022/11/14 02:19:05;;;;;;;32.65;17.00;;;4.70;99.90;;;;;;5042956;28;20301;-87
2022/11/14 02:21:31;;;;;;;47.63;21.90;;;4.90;99.90;;;;;;5057369;28;20971;-89
2022/11/14 02:23:56;;;;;;;70.83;21.40;;;4.90;99.90;;;;;;5035609;28;20178;-90
2022/11/14 02:26:22;;;;;;;34.43;17.40;;;4.90;99.90;;;;;;5038368;28;20189;-87
2022/11/14 02:28:48;;;;;;;32.70;16.83;;;5.00;99.90;;;;;;5043951;28;20223;-90
2022/11/14 02:31:14;;;;;;;29.40;16.83;;;4.80;99.90;;;;;;5052652;28;20213;-88
2022/11/14 02:33:40;;;;;;;28.88;16.60;;;4.70;99.90;;;;;;5059831;28;20209;-89
2022/11/14 02:36:06;;;;;;;36.20;16.07;;;4.70;99.90;;;;;;5044726;28;20209;-89
2022/11/14 02:38:32;;;;;;;30.80;16.35;;;4.70;99.90;;;;;;5040706;28;20436;-89
2022/11/14 02:40:59;;;;;;;30.47;17.53;;;4.70;99.90;;;;;;5043632;28;20219;-89
2022/11/14 02:43:24;;;;;;;34.80;17.23;;;4.60;99.90;;;;;;5044970;28;20600;-88
2022/11/14 02:45:50;;;;;;;34.87;16.50;;;4.70;99.90;;;;;;5040017;28;20177;-90
2022/11/14 02:48:16;;;;;;;29.57;16.23;;;;;;;;;;5045124;28;20212;-88
2022/11/14 02:50:42;;;;;;;32.47;17.80;;;;;;;;;;5048948;28;20698;-89
2022/11/14 02:53:08;;;;;;;30.63;16.67;;;4.60;99.90;;;;;;5043378;28;20511;-88
2022/11/14 02:55:34;;;;;;;38.80;18.97;;;;;;;;;;5045103;28;20265;-88
2022/11/14 02:58:00;;;;;;;29.87;16.03;;;;;;;;;;5044514;28;20443;-89
2022/11/14 03:00:25;;;;;;;30.02;16.70;;;4.70;99.90;;;;;;5051541;28;20536;-89
2022/11/14 03:02:52;;;;;;;27.17;16.77;;;4.40;99.90;;;;;;5048475;28;20209;-89
2022/11/14 03:05:18;;;;;;;31.73;16.17;;;4.60;99.90;;;;;;5046020;28;20311;-88
2022/11/14 03:07:44;;;;;;;25.40;14.47;;;4.60;99.90;;;;;;5035179;28;20272;-90
2022/11/14 03:10:10;;;;;;;29.23;15.20;;;4.50;99.90;;;;;;5048331;28;20215;-89
2022/11/14 03:12:36;;;;;;;27.83;14.35;;;4.40;99.90;;;;;;5047312;28;20184;-89
2022/11/14 03:15:04;;;;;;;28.25;15.80;;;4.40;99.90;;;;;;5068244;28;20788;-88
2022/11/14 03:17:33;;;;;;;31.00;17.70;;;4.40;99.90;;;;;;5059181;28;20185;-89
2022/11/14 03:19:59;;;;;;;30.73;17.13;;;4.40;99.90;;;;;;5044497;28;20211;-89
2022/11/14 03:22:25;;;;;;;26.10;15.20;;;;;;;;;;5047039;28;20216;-89
2022/11/14 03:24:51;;;;;;;27.17;15.77;;;4.50;99.90;;;;;;5048788;28;20465;-89
2022/11/14 03:27:17;;;;;;;30.17;17.93;;;4.60;99.90;;;;;;5046792;28;20267;-90
2022/11/14 03:29:42;;;;;;;26.40;16.07;;;4.80;99.90;;;;;;5054740;28;20184;-89
2022/11/14 03:32:08;;;;;;;31.90;14.90;;;4.80;99.90;;;;;;5047939;28;20189;-89
2022/11/14 03:34:33;;;;;;;27.27;15.00;;;4.80;99.90;;;;;;5043668;28;20177;-88
2022/11/14 03:36:59;;;;;;;21.40;13.87;;;;;;;;;;5056466;28;21471;-86
2022/11/14 03:39:25;;;;;;;26.27;15.50;;;4.70;99.90;;;;;;5044951;28;20711;-89
2022/11/14 03:41:51;;;;;;;27.25;14.73;;;4.70;99.90;;;;;;5039939;28;20542;-89
2022/11/14 03:44:17;;;;;;;20.87;14.03;;;;;;;;;;5039655;28;20300;-90
2022/11/14 03:46:42;;;;;;;22.97;14.40;;;4.80;99.90;;;;;;5045615;28;20192;-90
2022/11/14 03:49:08;;;;;;;30.57;15.30;;;;;;;;;;5059791;28;20444;-89
2022/11/14 03:51:34;;;;;;;26.37;15.67;;;4.60;99.90;;;;;;5043987;28;20201;-89
2022/11/14 03:54:00;;;;;;;21.57;12.47;;;4.60;99.90;;;;;;5046761;28;20443;-88
2022/11/14 03:56:25;;;;;;;26.00;15.10;;;4.60;99.90;;;;;;5045663;28;20280;-88
2022/11/14 03:58:51;;;;;;;33.63;16.13;;;;;;;;;;5037118;28;20195;-89
2022/11/14 04:01:17;;;;;;;24.07;13.53;;;4.40;99.90;;;;;;5052603;28;20336;-89
2022/11/14 04:03:43;;;;;;;25.87;14.33;;;4.30;99.90;;;;;;5039647;28;20444;-89
2022/11/14 04:06:08;;;;;;;25.80;14.80;;;4.10;99.90;;;;;;5039608;28;20485;-88
2022/11/14 04:08:34;;;;;;;27.40;14.60;;;4.10;99.90;;;;;;5046621;28;20189;-88
2022/11/14 04:10:59;;;;;;;23.63;15.03;;;4.00;99.90;;;;;;5062397;28;20246;-86
2022/11/14 04:13:25;;;;;;;23.53;14.80;;;3.90;99.90;;;;;;5064730;28;20184;-87
2022/11/14 04:15:57;;;;;;;27.40;13.93;;;3.90;99.90;;;;;;5055429;28;20228;-90
2022/11/14 04:18:24;;;;;;;24.33;13.25;;;3.90;99.90;;;;;;5058617;28;20189;-89
2022/11/14 04:20:50;;;;;;;25.80;13.77;;;3.90;99.90;;;;;;5060530;28;20200;-87
2022/11/14 04:23:15;;;;;;;25.90;14.73;;;4.00;99.90;;;;;;5039657;28;20209;-89
2022/11/14 04:25:43;;;;;;;36.63;20.10;;;3.90;99.90;;;;;;5037283;28;20954;-88
2022/11/14 04:28:08;;;;;;;25.70;14.73;;;3.90;99.90;;;;;;5046653;28;20169;-88
2022/11/14 04:30:34;;;;;;;28.03;13.60;;;;;;;;;;5041860;28;20204;-88
2022/11/14 04:33:00;;;;;;;22.27;11.87;;;;;;;;;;5041802;28;20181;-90
2022/11/14 04:35:26;;;;;;;25.40;13.03;;;4.20;99.90;;;;;;5041609;28;20541;-90
2022/11/14 04:37:52;;;;;;;19.40;12.47;;;;;;;;;;5037818;28;20497;-88
2022/11/14 04:40:18;;;;;;;20.33;13.03;;;;;;;;;;5057165;28;20216;-90
2022/11/14 04:42:43;;;;;;;17.87;10.93;;;;;;;;;;5056331;28;20843;-88
2022/11/14 04:45:10;;;;;;;21.10;11.10;;;4.30;99.90;;;;;;5042068;28;20574;-90
2022/11/14 04:47:36;;;;;;;22.98;13.48;;;4.40;99.90;;;;;;5061871;28;20447;-90
2022/11/14 04:50:02;;;;;;;22.20;12.37;;;4.30;99.90;;;;;;5061048;28;20212;-90
2022/11/14 04:52:28;;;;;;;23.52;14.30;;;4.30;99.90;;;;;;5032618;28;20181;-90
2022/11/14 04:54:53;;;;;;;22.20;13.10;;;4.20;99.90;;;;;;5043988;28;20378;-89
2022/11/14 04:57:19;;;;;;;18.00;11.43;;;4.20;99.90;;;;;;5050924;28;20226;-89
2022/11/14 04:59:45;;;;;;;27.20;13.90;;;;;;;;;;5035938;28;20310;-88
2022/11/14 05:02:11;;;;;;;19.70;12.53;;;4.30;99.90;;;;;;5034080;28;20212;-88
2022/11/14 05:04:37;;;;;;;20.50;12.80;;;4.20;99.90;;;;;;5036673;28;20493;-91
2022/11/14 05:07:03;;;;;;;24.70;14.50;;;4.10;99.90;;;;;;5054971;28;20189;-89
2022/11/14 05:09:29;;;;;;;24.50;13.60;;;3.90;99.90;;;;;;5030382;28;20182;-89
2022/11/14 05:11:54;;;;;;;22.58;11.85;;;3.90;99.90;;;;;;5055702;28;20443;-87
2022/11/14 05:14:20;;;;;;;22.70;13.40;;;3.80;99.90;;;;;;5038516;28;20192;-89
2022/11/14 05:16:45;;;;;;;24.90;15.27;;;3.80;99.90;;;;;;5037413;28;21126;-89
2022/11/14 05:19:11;;;;;;;22.73;13.00;;;3.90;99.90;;;;;;5036942;28;20210;-90
2022/11/14 05:21:36;;;;;;;20.00;12.50;;;4.00;99.90;;;;;;5042916;28;20227;-90
2022/11/14 05:24:02;;;;;;;21.53;10.97;;;4.10;99.90;;;;;;5042903;28;20173;-89
2022/11/14 05:26:28;;;;;;;19.73;11.37;;;;;;;;;;5053004;28;20669;-89
2022/11/14 05:28:54;;;;;;;19.60;11.33;;;4.20;99.90;;;;;;5044481;28;20193;-88
2022/11/14 05:31:19;;;;;;;20.40;12.43;;;4.20;99.90;;;;;;5035835;28;20465;-88
2022/11/14 05:33:45;;;;;;;21.93;12.13;;;4.10;99.90;;;;;;5055818;28;20186;-90
2022/11/14 05:36:14;;;;;;;24.17;13.05;;;4.10;99.90;;;;;;5043320;28;20569;-89
2022/11/14 05:38:40;;;;;;;22.67;11.32;;;4.10;99.90;;;;;;5045379;28;20212;-89
2022/11/14 05:41:14;;;;;;;18.83;10.15;;;4.10;99.90;;;;;;5040038;28;20209;-90
2022/11/14 05:43:40;;;;;;;20.13;10.75;;;4.00;99.90;;;;;;5045309;28;20243;-88
2022/11/14 05:46:09;;;;;;;21.27;11.95;;;3.90;99.90;;;;;;5038102;28;20177;-90
2022/11/14 05:48:35;;;;;;;20.35;12.15;;;3.90;99.90;;;;;;5050734;28;20192;-89
2022/11/14 05:51:02;;;;;;;20.40;11.23;;;3.90;99.90;;;;;;5050535;28;20201;-89
2022/11/14 05:53:29;;;;;;;19.95;12.60;;;3.80;99.90;;;;;;5032700;28;20526;-89
2022/11/14 05:55:54;;;;;;;19.10;12.00;;;3.70;99.90;;;;;;5048657;28;20188;-90
2022/11/14 05:58:21;;;;;;;25.40;12.53;;;;;;;;;;5030079;28;20169;-90
2022/11/14 06:00:46;;;;;;;18.88;11.75;;;3.60;99.90;;;;;;5037352;28;20836;-90
2022/11/14 06:03:13;;;;;;;18.63;11.30;;;3.60;99.90;;;;;;5033367;28;20217;-87
2022/11/14 06:05:39;;;;;;;23.65;11.85;;;3.60;99.90;;;;;;5033264;28;20184;-88
2022/11/14 06:08:05;;;;;;;26.77;14.57;;;;;;;;;;5048067;28;20185;-90
2022/11/14 06:10:33;;;;;;;22.87;14.17;;;3.60;99.90;;;;;;5034548;28;20274;-90
2022/11/14 06:12:58;;;;;;;19.48;13.20;;;3.60;99.90;;;;;;5032215;28;20439;-89
2022/11/14 06:15:24;;;;;;;26.70;13.20;;;3.50;99.90;;;;;;5021269;28;20211;-87
2022/11/14 06:17:52;;;;;;;20.87;11.80;;;3.50;99.90;;;;;;5037234;28;20309;-87
2022/11/14 06:20:18;;;;;;;21.08;12.32;;;3.40;99.90;;;;;;5045549;28;20205;-88
2022/11/14 06:22:43;;;;;;;23.63;12.40;;;3.50;99.90;;;;;;5026174;28;20286;-89
2022/11/14 06:25:09;;;;;;;20.40;11.30;;;3.50;99.90;;;;;;5034467;28;20197;-91
2022/11/14 06:27:34;;;;;;;13.50;8.87;;;3.50;99.90;;;;;;5058590;28;20189;-90
2022/11/14 06:30:00;;;;;;;16.30;8.53;;;3.60;99.90;;;;;;5031066;28;20216;-91
2022/11/14 06:32:26;;;;;;;15.07;9.13;;;3.60;99.90;;;;;;5040783;28;20272;-91
2022/11/14 06:34:51;;;;;;;14.83;8.27;;;3.60;99.90;;;;;;5052624;28;20314;-90
2022/11/14 06:37:17;;;;;;;18.23;9.37;;;3.60;99.90;;;;;;5038981;28;20211;-91
2022/11/14 06:39:42;;;;;;;19.43;10.77;;;3.70;99.90;;;;;;5042199;28;20196;-90
2022/11/14 06:42:08;;;;;;;19.13;9.63;;;3.60;99.90;;;;;;5055402;28;20220;-90
2022/11/14 06:44:33;;;;;;;14.90;8.10;;;3.70;99.90;;;;;;5046730;28;20181;-91
2022/11/14 06:46:59;;;;;;;12.33;7.57;;;;;;;;;;5034559;28;20181;-90
2022/11/14 06:49:26;;;;;;;13.70;8.13;;;3.90;99.90;;;;;;5045989;28;20173;-88
2022/11/14 06:51:52;;;;;;;13.30;8.40;;;4.00;99.90;;;;;;5066870;28;20292;-88
2022/11/14 06:54:18;;;;;;;13.10;8.30;;;4.00;99.90;;;;;;5062102;28;20626;-89
2022/11/14 06:56:43;;;;;;;12.27;7.67;;;4.10;99.90;;;;;;5032007;28;20443;-90
2022/11/14 06:59:09;;;;;;;13.43;8.80;;;4.20;99.90;;;;;;5038759;28;20188;-89
2022/11/14 07:01:34;;;;;;;8.20;6.20;;;4.20;99.90;;;;;;5036619;28;20304;-89
2022/11/14 07:04:01;;;;;;;10.53;6.17;;;4.40;99.90;;;;;;5032176;28;20185;-89
2022/11/14 07:06:27;;;;;;;11.25;7.00;;;4.70;99.90;;;;;;5030813;28;20559;-90
2022/11/14 07:08:57;;;;;;;12.70;6.70;;;4.90;99.90;;;;;;5032278;28;20177;-90
2022/11/14 07:11:25;;;;;;;7.10;3.85;;;4.90;99.90;;;;;;5031544;28;20269;-90
2022/11/14 07:13:52;;;;;;;13.43;7.22;;;4.90;99.90;;;;;;5033053;28;20185;-88
2022/11/14 07:16:19;;;;;;;14.90;8.85;;;5.00;99.90;;;;;;5052651;28;20182;-88
2022/11/14 07:18:45;;;;;;;14.73;8.77;;;5.30;99.90;;;;;;5068315;22;20227;-80
2022/11/14 07:21:13;;;;;;;11.77;7.47;;;5.30;99.90;;;;;;5058154;28;20732;-79
2022/11/14 07:23:39;;;;;;;12.10;7.82;;;5.40;99.90;;;;;;5041991;28;20177;-82
2022/11/14 07:26:07;;;;;;;17.33;8.80;;;5.70;99.90;;;;;;5038178;28;20181;-79
2022/11/14 07:28:40;;;;;;;12.50;7.20;;;6.20;99.90;;;;;;5035489;28;20181;-80
2022/11/14 07:31:09;;;;;;;11.48;7.63;;;6.60;99.90;;;;;;5041938;28;20173;-81
2022/11/14 07:33:34;;;;;;;11.57;8.02;;;7.00;99.90;;;;;;5040117;28;20200;-81
2022/11/14 07:36:01;;;;;;;10.33;6.50;;;7.10;99.90;;;;;;5056887;28;20228;-80
2022/11/14 07:38:26;;;;;;;14.90;9.10;;;7.20;99.90;;;;;;5046314;28;20442;-82
2022/11/14 07:40:56;;;;;;;11.80;8.10;;;7.40;99.90;;;;;;5038400;28;20185;-82
2022/11/14 07:43:22;;;;;;;14.00;9.18;;;7.50;99.90;;;;;;5039850;28;20213;-82
2022/11/14 07:45:47;;;;;;;10.73;7.33;;;7.30;99.90;;;;;;5041278;28;20220;-82
2022/11/14 07:48:13;;;;;;;10.03;6.93;;;7.10;99.90;;;;;;5050318;28;20188;-83
2022/11/14 07:50:38;;;;;;;10.70;6.87;;;7.10;99.90;;;;;;5038958;28;20177;-81
2022/11/14 07:53:04;;;;;;;10.43;8.10;;;7.10;99.90;;;;;;5033584;28;20314;-81
2022/11/14 07:55:29;;;;;;;14.77;8.50;;;6.90;99.90;;;;;;5036867;28;20689;-80
2022/11/14 07:57:58;;;;;;;11.17;6.93;;;6.60;99.90;;;;;;5029515;28;20191;-81
2022/11/14 08:00:24;;;;;;;14.40;8.32;;;6.30;99.90;;;;;;5035818;28;20214;-83
2022/11/14 08:02:49;;;;;;;14.03;8.57;;;6.00;99.90;;;;;;5033965;28;20708;-82
2022/11/14 08:05:15;;;;;;;9.97;8.03;;;5.90;99.90;;;;;;5043327;28;22034;-82
2022/11/14 08:07:41;;;;;;;9.70;7.40;;;5.80;99.90;;;;;;5033639;28;20579;-83
2022/11/14 08:10:07;;;;;;;14.00;8.90;;;5.80;99.90;;;;;;5038366;28;20196;-81
2022/11/14 08:12:33;;;;;;;14.75;8.27;;;5.70;99.90;;;;;;5039587;28;20204;-81
2022/11/14 08:14:58;;;;;;;14.17;8.70;;;5.60;99.90;;;;;;5041329;28;21220;-81
2022/11/14 08:17:24;;;;;;;12.00;6.43;;;5.40;99.90;;;;;;5036953;28;20192;-81
2022/11/14 08:19:49;;;;;;;13.50;7.50;;;5.40;99.90;;;;;;5036656;28;20749;-83
2022/11/14 08:22:15;;;;;;;14.40;9.30;;;5.40;99.90;;;;;;5052442;28;20201;-82
2022/11/14 08:24:40;;;;;;;15.77;9.60;;;5.50;99.90;;;;;;5036608;28;20630;-81
2022/11/14 08:27:06;;;;;;;13.43;8.43;;;5.60;99.90;;;;;;5042681;28;20637;-82
2022/11/14 08:29:31;;;;;;;13.63;8.20;;;5.70;99.90;;;;;;5051113;28;20180;-82
2022/11/14 08:31:57;;;;;;;11.30;8.70;;;5.90;99.90;;;;;;5041793;28;20201;-81
2022/11/14 08:34:24;;;;;;;17.13;9.17;;;6.10;99.90;;;;;;5038405;28;20185;-80
2022/11/14 08:36:49;;;;;;;10.45;7.35;;;6.30;99.90;;;;;;5038365;28;20280;-81
2022/11/14 08:39:15;;;;;;;11.50;6.50;;;6.30;99.90;;;;;;5038789;28;20244;-80
2022/11/14 08:41:40;;;;;;;10.87;7.27;;;6.20;99.90;;;;;;5039293;28;20431;-82
2022/11/14 08:44:06;;;;;;;11.60;7.93;;;6.10;99.90;;;;;;5033505;28;20230;-82
2022/11/14 08:46:31;;;;;;;13.13;7.37;;;6.00;99.90;;;;;;5052300;28;20188;-80
2022/11/14 08:48:57;;;;;;;8.80;6.63;;;6.00;99.90;;;;;;5048908;28;20173;-83
2022/11/14 08:51:22;;;;;;;10.27;7.20;;;6.00;99.90;;;;;;5039800;28;20201;-80
2022/11/14 08:53:50;;;;;;;13.27;7.40;;;6.10;99.90;;;;;;5037805;28;20181;-82
2022/11/14 08:56:15;;;;;;;12.15;7.20;;;6.10;99.90;;;;;;5036500;28;20196;-80
2022/11/14 08:58:41;;;;;;;9.83;6.67;;;6.20;99.90;;;;;;5037072;28;22563;-80
2022/11/14 09:01:06;;;;;;;11.50;7.47;;;6.20;99.90;;;;;;5045801;28;20206;-83
2022/11/14 09:03:33;;;;;;;16.37;6.87;;;6.30;99.90;;;;;;5042739;28;20268;-82
2022/11/14 09:05:59;;;;;;;23.95;6.80;;;6.40;99.90;;;;;;5047464;28;20197;-81
2022/11/14 09:08:24;;;;;;;10.25;6.43;;;6.70;99.90;;;;;;5042683;28;20178;-81
2022/11/14 09:10:50;;;;;;;8.93;5.70;;;7.00;99.90;;;;;;5041434;28;20185;-81
2022/11/14 09:13:16;;;;;;;6.50;4.10;;;7.30;99.90;;;;;;5066101;28;20264;-79
2022/11/14 09:15:42;;;;;;;7.10;4.40;;;7.50;99.90;;;;;;5050735;28;20382;-80
2022/11/14 09:18:09;;;;;;;6.95;4.35;;;7.80;99.90;;;;;;5064525;28;20782;-79
2022/11/14 09:20:34;;;;;;;3.22;2.92;;;8.00;99.90;;;;;;5046565;28;20185;-81
2022/11/14 09:23:01;;;;;;;13.70;4.03;;;8.20;99.90;;;;;;5042904;28;20211;-81
2022/11/14 09:25:28;;;;;;;8.60;3.00;;;8.10;99.90;;;;;;5042729;28;20247;-83
2022/11/14 09:27:54;;;;;;;9.65;3.10;;;8.10;99.90;;;;;;5042046;28;20287;-82
2022/11/14 09:30:21;;;;;;;4.83;2.80;;;8.20;99.90;;;;;;5043980;28;20216;-82
2022/11/14 09:32:47;;;;;;;3.30;1.98;;;8.30;99.90;;;;;;5045679;28;20455;-80
2022/11/14 09:35:13;;;;;;;3.00;2.70;;;8.50;99.90;;;;;;5056700;28;20192;-80
2022/11/14 09:37:39;;;;;;;2.43;1.50;;;8.60;99.90;;;;;;5046941;28;20681;-81
2022/11/14 09:40:05;;;;;;;2.75;1.90;;;8.70;99.90;;;;;;5054847;28;20823;-80
2022/11/14 09:42:52;;;;;;;6.20;3.60;;;8.70;99.90;;;;;;5044584;28;20250;-83
2022/11/14 09:45:17;;;;;;;7.95;3.90;;;8.80;99.90;;;;;;5046087;28;20196;-82
2022/11/14 09:47:53;;;;;;;2.73;1.80;;;8.80;99.90;;;;;;5059509;28;21716;-84
2022/11/14 09:50:26;;;;;;;3.70;2.13;;;8.90;99.90;;;;;;5042328;28;20221;-83
2022/11/14 09:52:55;;;;;;;2.95;2.47;;;9.00;99.90;;;;;;5042104;28;20216;-83
2022/11/14 09:55:29;;;;;;;4.50;2.70;;;9.00;99.90;;;;;;5038683;28;20588;-82
2022/11/14 09:57:55;;;;;;;1.83;1.38;;;8.90;99.90;;;;;;5046667;28;20187;-83
2022/11/14 10:00:24;;;;;;;3.88;1.70;;;9.00;99.90;;;;;;5047800;28;20180;-80
2022/11/14 10:03:19;;;;;;;3.22;2.40;;;9.00;99.90;;;;;;5042009;28;20266;-81
2022/11/14 10:05:53;;;;;;;2.88;1.75;;;9.00;99.90;;;;;;5032843;28;20189;-83
2022/11/14 10:08:25;;;;;;;3.22;2.38;;;9.10;99.90;;;;;;5047433;28;20648;-83
2022/11/14 10:10:53;;;;;;;3.55;2.38;;;9.10;99.90;;;;;;5046678;28;20268;-80
2022/11/14 10:13:38;;;;;;;3.70;3.13;;;9.00;99.90;;;;;;5044336;28;20197;-80
2022/11/14 10:16:17;;;;;;;1.83;1.73;;;9.10;99.90;;;;;;5047090;28;20497;-80
2022/11/14 10:18:57;;;;;;;4.80;2.75;;;9.20;99.90;;;;;;5052280;28;20656;-85
2022/11/14 10:21:38;;;;;;;3.60;2.33;;;9.30;99.90;;;;;;5056462;28;20204;-84
2022/11/14 10:24:32;;;;;;;4.28;1.98;;;9.30;99.90;;;;;;5058510;28;20195;-82
2022/11/14 10:27:05;;;;;;;3.85;2.45;;;9.30;99.90;;;;;;5057915;28;20180;-81
2022/11/14 10:29:49;;;;;;;2.08;1.55;;;9.30;99.90;;;;;;5045850;28;20184;-79
2022/11/14 10:32:36;;;;;;;2.60;2.05;;;9.20;99.90;;;;;;5043047;28;20251;-80
2022/11/14 10:35:06;;;;;;;3.15;2.33;;;9.20;99.90;;;;;;5036768;28;20235;-82
2022/11/14 10:37:50;;;;;;;3.58;2.42;;;9.30;99.90;;;;;;5044627;28;20203;-81
2022/11/14 10:40:46;;;;;;;4.90;2.15;;;9.20;99.90;;;;;;5046489;28;20192;-81
2022/11/14 10:43:24;;;;;;;5.32;2.20;;;9.30;99.90;;;;;;5026558;28;20313;-84
2022/11/14 10:46:11;;;;;;;4.43;1.45;;;9.40;99.90;;;;;;5042945;28;20192;-83
2022/11/14 10:48:49;;;;;;;3.70;2.22;;;9.70;99.90;;;;;;5041432;28;20243;-80
2022/11/14 10:51:17;;;;;;;3.47;2.47;;;10.10;99.90;;;;;;5044938;28;20617;-82
2022/11/14 10:53:56;;;;;;;5.25;3.60;;;10.30;99.90;;;;;;5044835;28;20247;-83
2022/11/14 10:56:22;;;;;;;4.22;2.00;;;10.40;99.90;;;;;;5046323;28;20225;-82
2022/11/14 10:58:47;;;;;;;4.97;2.60;;;10.40;99.90;;;;;;5044507;28;20689;-86
2022/11/14 11:01:39;;;;;;;3.87;1.80;;;10.40;99.90;;;;;;5041869;28;20678;-82
2022/11/14 11:04:22;;;;;;;4.57;2.53;;;10.50;99.90;;;;;;5061711;28;20282;-83
2022/11/14 11:06:49;;;;;;;3.33;2.05;;;10.50;99.90;;;;;;5046327;28;20709;-80
2022/11/14 11:12:05;;;;;;;4.55;2.97;;;10.50;99.90;;;;;;5045469;28;20216;-82
2022/11/14 11:14:31;;;;;;;5.72;2.80;;;10.50;99.90;;;;;;5061228;28;20831;-82
2022/11/14 11:17:10;;;;;;;6.97;2.58;;;10.50;99.90;;;;;;5042632;28;20641;-81
2022/11/14 11:19:36;;;;;;;3.13;2.55;;;10.50;99.90;;;;;;5059295;28;20220;-81
2022/11/14 11:22:02;;;;;;;4.13;2.55;;;10.40;99.90;;;;;;5058687;28;20927;-83
2022/11/14 11:24:34;;;;;;;6.93;2.92;;;10.50;99.90;;;;;;5043831;28;20185;-82
2022/11/14 11:27:21;;;;;;;4.95;2.47;;;10.40;99.90;;;;;;5044964;28;20181;-80
2022/11/14 11:30:26;;;;;;;4.82;3.15;;;10.50;99.90;;;;;;5044124;28;20181;-82
2022/11/14 11:32:52;;;;;;;5.93;3.47;;;10.60;99.90;;;;;;5041992;28;20236;-80
2022/11/14 11:35:17;;;;;;;3.67;2.67;;;10.60;99.90;;;;;;5044516;28;20196;-81
2022/11/14 11:38:01;;;;;;;3.83;2.70;;;10.70;99.90;;;;;;5042118;28;20280;-83
2022/11/14 11:40:28;;;;;;;2.80;2.53;;;10.70;99.90;;;;;;5041509;28;20177;-81
2022/11/14 11:43:02;;;;;;;3.55;2.28;;;10.70;99.90;;;;;;5057402;28;20540;-83
2022/11/14 11:45:31;;;;;;;6.50;2.92;;;10.70;99.90;;;;;;5041147;28;20707;-82
2022/11/14 11:48:13;;;;;;;4.55;2.80;;;10.80;99.90;;;;;;5048327;28;20262;-82
2022/11/14 11:50:40;;;;;;;4.15;2.45;;;10.70;99.90;;;;;;5057528;28;20542;-85
2022/11/14 11:53:30;;;;;;;7.90;2.72;;;10.80;99.90;;;;;;5041680;28;20205;-83
2022/11/14 11:56:03;;;;;;;3.50;2.05;;;10.90;99.90;;;;;;5052710;28;20191;-82
2022/11/14 11:58:36;;;;;;;3.08;2.45;;;10.80;99.90;;;;;;5045273;28;20426;-83
2022/11/14 12:01:01;;;;;;;2.63;1.95;;;10.80;99.90;;;;;;5056718;28;20188;-83
2022/11/14 12:03:27;;;;;;;2.60;2.03;;;11.00;99.90;;;;;;5039472;28;20672;-81
2022/11/14 12:06:05;;;;;;;1.77;1.40;;;11.10;99.90;;;;;;5037407;28;20666;-82
2022/11/14 12:08:39;;;;;;;2.75;1.75;;;11.10;99.90;;;;;;5040344;28;20268;-81
2022/11/14 12:11:12;;;;;;;2.05;1.30;;;11.20;99.90;;;;;;5036799;28;20551;-82
2022/11/14 12:13:53;;;;;;;6.78;1.40;;;11.20;99.90;;;;;;5056736;28;20192;-81
2022/11/14 12:16:34;;;;;;;1.92;1.58;;;11.20;99.90;;;;;;5043168;28;20263;-84
2022/11/14 12:19:14;;;;;;;2.47;2.10;;;11.30;99.90;;;;;;5043750;28;20208;-83
2022/11/14 12:24:31;;;;;;;5.40;1.67;;;11.30;99.90;;;;;;5048039;28;20219;-87
2022/11/14 12:27:06;;;;;;;7.18;1.55;;;11.50;99.90;;;;;;5040675;28;20184;-87
2022/11/14 12:29:53;;;;;;;2.08;1.50;;;11.50;99.90;;;;;;5059432;28;20216;-86
2022/11/14 12:32:41;;;;;;;1.40;0.95;;;11.40;99.90;;;;;;5061543;28;21189;-86
2022/11/14 12:35:19;;;;;;;1.70;1.17;;;11.50;99.90;;;;;;5059753;28;20190;-89
2022/11/14 12:37:48;;;;;;;1.83;1.42;;;11.60;99.90;;;;;;5050817;28;20192;-87
2022/11/14 12:40:43;;;;;;;1.60;1.45;;;11.60;99.90;;;;;;5045454;28;20205;-87
2022/11/14 12:43:31;;;;;;;1.95;1.55;;;10.30;99.90;;;;;;5049584;28;20212;-88
2022/11/14 12:45:58;;;;;;;2.92;1.45;;;11.70;99.90;;;;;;5051568;28;20493;-88
2022/11/14 12:48:31;;;;;;;1.50;1.00;;;11.80;99.90;;;;;;5053192;28;20248;-86
2022/11/14 12:50:58;;;;;;;2.00;1.40;;;12.00;99.90;;;;;;5073259;28;20183;-90
2022/11/14 12:53:38;;;;;;;3.20;1.65;;;12.10;99.90;;;;;;5075297;28;20192;-88
2022/11/14 12:56:19;;;;;;;3.45;1.65;;;12.00;99.90;;;;;;5085032;28;20200;-86
2022/11/14 12:58:56;;;;;;;2.03;1.45;;;12.00;99.90;;;;;;5061947;28;20197;-89
2022/11/14 13:01:22;;;;;;;4.85;1.30;;;;;;;;;;5055333;28;20181;-90
2022/11/14 13:04:04;;;;;;;3.00;1.47;;;11.70;99.90;;;;;;5066926;28;20181;-89
2022/11/14 13:06:36;;;;;;;1.77;1.25;;;11.70;99.90;;;;;;5065743;28;20465;-88